Time;durP1;ratioP1;P1;durP2;ratioP2;P2;SDS_P1;SDS_P2;PMS_P1;PMS_P2;Temp;Humidity;BMP_temperature;BMP_pressure;BME280_temperature;BME280_humidity;BME280_pressure;Samples;Min_cycle;Max_cycle;Signal;HPM_P1;HPM_P2
2022/12/09 00:01:19;;;;;;;40.38;19.52;;;;;;;;;;5112764;28;20498;-80
2022/12/09 00:03:45;;;;;;;42.95;18.98;;;;;;;;;;5112835;28;20035;-80
2022/12/09 00:06:16;;;;;;;41.10;20.10;;;;;;;;;;5112728;28;20420;-80
2022/12/09 00:08:42;;;;;;;44.25;20.30;;;;;;;;;;5112906;28;20024;-80
2022/12/09 00:11:08;;;;;;;47.05;20.83;;;;;;;;;;5111270;28;20027;-80
2022/12/09 00:13:34;;;;;;;49.80;20.95;;;;;;;;;;5112694;28;20469;-80
2022/12/09 00:16:04;;;;;;;44.33;21.20;;;;;;;;;;5111411;28;20044;-80
2022/12/09 00:18:30;;;;;;;45.08;20.98;;;;;;;;;;5113088;28;20020;-80
2022/12/09 00:20:56;;;;;;;47.72;20.85;;;;;;;;;;5094772;28;20027;-80
2022/12/09 00:23:22;;;;;;;50.90;21.80;;;;;;;;;;5112908;28;20515;-80
2022/12/09 00:25:49;;;;;;;45.47;21.15;;;;;;;;;;5111535;28;20024;-80
2022/12/09 00:28:15;;;;;;;47.25;21.38;;;;;;;;;;5111283;28;20112;-80
2022/12/09 00:30:41;;;;;;;44.22;20.90;;;;;;;;;;5112482;28;20488;-80
2022/12/09 00:33:07;;;;;;;47.13;21.23;;;;;;;;;;5112595;28;20139;-80
2022/12/09 00:35:33;;;;;;;47.15;21.92;;;;;;;;;;5111297;28;20070;-80
2022/12/09 00:37:59;;;;;;;45.70;21.05;;;;;;;;;;5113622;28;20024;-80
2022/12/09 00:40:25;;;;;;;43.17;20.27;;;;;;;;;;5115460;28;20047;-80
2022/12/09 00:42:51;;;;;;;48.13;21.85;;;;;;;;;;5115537;28;20035;-80
2022/12/09 00:45:17;;;;;;;47.53;21.92;;;;;;;;;;5116465;28;20031;-80
2022/12/09 00:47:43;;;;;;;51.65;22.40;;;;;;;;;;5115274;28;20392;-80
2022/12/09 00:50:09;;;;;;;50.72;21.52;;;;;;;;;;5116433;28;20229;-80
2022/12/09 00:52:35;;;;;;;46.55;21.05;;;;;;;;;;5115104;28;20019;-80
2022/12/09 00:55:01;;;;;;;49.30;20.92;;;;;;;;;;5114708;28;20044;-80
2022/12/09 00:57:27;;;;;;;47.88;21.90;;;;;;;;;;5113648;28;20024;-80
2022/12/09 00:59:53;;;;;;;50.38;21.65;;;;;;;;;;5097789;28;20496;-80
2022/12/09 01:02:19;;;;;;;52.92;22.38;;;;;;;;;;5115110;28;20518;-80
2022/12/09 01:04:45;;;;;;;46.55;22.15;;;;;;;;;;5115103;28;20112;-80
2022/12/09 01:07:11;;;;;;;51.63;22.23;;;;;;;;;;5114829;28;20362;-80
2022/12/09 01:09:37;;;;;;;49.63;22.27;;;;;;;;;;5114590;28;20553;-80
2022/12/09 01:12:03;;;;;;;52.17;23.08;;;;;;;;;;5115899;28;20059;-80
2022/12/09 01:14:30;;;;;;;52.85;22.77;;;;;;;;;;5114491;28;20500;-80
2022/12/09 01:16:56;;;;;;;46.47;21.80;;;;;;;;;;5097548;28;20042;-80
2022/12/09 01:19:22;;;;;;;47.42;21.38;;;;;;;;;;5115776;28;20376;-80
2022/12/09 01:21:48;;;;;;;53.08;21.90;;;;;;;;;;5114477;28;20020;-79
2022/12/09 01:24:14;;;;;;;47.50;21.92;;;;;;;;;;5114147;28;20065;-80
2022/12/09 01:26:40;;;;;;;44.42;21.05;;;;;;;;;;5114589;28;20041;-80
2022/12/09 01:29:06;;;;;;;44.08;20.65;;;;;;;;;;5115227;28;20031;-80
2022/12/09 01:31:32;;;;;;;48.95;20.80;;;;;;;;;;5115453;28;20023;-80
2022/12/09 01:33:58;;;;;;;45.70;20.50;;;;;;;;;;5115443;28;20020;-80
2022/12/09 01:36:25;;;;;;;41.35;19.63;;;;;;;;;;5113878;28;20028;-80
2022/12/09 01:38:52;;;;;;;49.22;20.10;;;;;;;;;;5110911;28;20030;-80
2022/12/09 01:41:19;;;;;;;49.28;21.33;;;;;;;;;;5105538;27;20024;-80
2022/12/09 01:43:45;;;;;;;50.15;22.05;;;;;;;;;;5097026;28;20015;-80
2022/12/09 01:46:11;;;;;;;52.05;21.63;;;;;;;;;;5095542;28;20130;-80
2022/12/09 01:48:38;;;;;;;44.78;21.10;;;;;;;;;;5101064;28;20510;-80
2022/12/09 01:51:08;;;;;;;51.00;20.33;;;;;;;;;;5090856;28;20028;-80
2022/12/09 01:53:37;;;;;;;44.28;20.33;;;;;;;;;;5097334;28;20392;-80
2022/12/09 01:56:06;;;;;;;50.22;20.23;;;;;;;;;;5113881;28;20028;-80
2022/12/09 01:58:32;;;;;;;51.42;20.00;;;;;;;;;;5095352;28;20022;-80
2022/12/09 02:00:58;;;;;;;48.45;21.08;;;;;;;;;;5127747;27;20031;-80
2022/12/09 02:03:24;;;;;;;52.83;19.48;;;;;;;;;;5134450;27;20031;-80
2022/12/09 02:05:50;;;;;;;46.67;20.60;;;;;;;;;;5134209;27;20035;-80
2022/12/09 02:08:17;;;;;;;52.10;20.50;;;;;;;;;;5115774;27;20509;-80
2022/12/09 02:10:49;;;;;;;43.90;19.77;;;;;;;;;;5134021;27;20062;-80
2022/12/09 02:13:36;;;;;;;52.95;20.67;;;;;;;;;;5134230;27;20057;-80
2022/12/09 02:16:05;;;;;;;47.30;19.98;;;;;;;;;;5116883;27;20038;-80
2022/12/09 02:18:57;;;;;;;48.47;19.80;;;;;;;;;;5134301;27;20023;-80
2022/12/09 02:21:26;;;;;;;49.13;20.00;;;;;;;;;;5094866;27;20027;-80
2022/12/09 02:23:58;;;;;;;45.03;19.27;;;;;;;;;;5133996;27;20019;-80
2022/12/09 02:26:30;;;;;;;49.10;19.08;;;;;;;;;;5133837;27;20023;-80
2022/12/09 02:29:04;;;;;;;47.90;19.35;;;;;;;;;;5133793;27;20016;-80
2022/12/09 02:31:48;;;;;;;48.20;19.80;;;;;;;;;;5114918;27;20027;-80
2022/12/09 02:34:19;;;;;;;43.90;18.30;;;;;;;;;;5106991;28;20353;-80
2022/12/09 02:36:51;;;;;;;49.70;19.08;;;;;;;;;;5120766;27;20053;-80
2022/12/09 02:39:22;;;;;;;46.55;20.13;;;;;;;;;;5133629;27;20023;-80
2022/12/09 02:41:49;;;;;;;46.75;19.50;;;;;;;;;;5115286;27;20032;-80
2022/12/09 02:44:17;;;;;;;49.88;20.45;;;;;;;;;;5123954;27;20027;-80
2022/12/09 02:46:43;;;;;;;56.13;25.02;;;;;;;;;;5114022;28;20023;-80
2022/12/09 02:49:10;;;;;;;51.08;24.63;;;;;;;;;;5095423;28;20085;-80
2022/12/09 02:51:40;;;;;;;45.00;21.52;;;;;;;;;;5113559;28;20020;-80
2022/12/09 02:54:09;;;;;;;47.88;19.65;;;;;;;;;;5094467;28;20443;-80
2022/12/09 02:56:35;;;;;;;42.92;19.05;;;;;;;;;;5094426;28;20020;-80
2022/12/09 02:59:01;;;;;;;53.90;20.75;;;;;;;;;;5095033;28;20469;-80
2022/12/09 03:01:40;;;;;;;48.03;19.50;;;;;;;;;;5131865;27;20054;-80
2022/12/09 03:04:08;;;;;;;48.83;19.08;;;;;;;;;;5133793;27;20388;-80
2022/12/09 03:06:38;;;;;;;52.08;20.00;;;;;;;;;;5115539;27;20026;-80
2022/12/09 03:09:04;;;;;;;43.92;17.45;;;;;;;;;;5133824;27;20046;-80
2022/12/09 03:11:32;;;;;;;50.50;19.33;;;;;;;;;;5133656;27;20472;-80
2022/12/09 03:14:02;;;;;;;41.95;17.67;;;;;;;;;;5133741;27;20020;-80
2022/12/09 03:16:47;;;;;;;43.78;19.02;;;;;;;;;;5133640;27;20050;-80
2022/12/09 03:19:42;;;;;;;43.03;18.05;;;;;;;;;;5133873;27;20138;-80
2022/12/09 03:22:11;;;;;;;44.08;18.92;;;;;;;;;;5112192;27;20035;-80
2022/12/09 03:24:39;;;;;;;41.42;17.95;;;;;;;;;;5115344;27;20046;-80
2022/12/09 03:27:07;;;;;;;40.95;18.13;;;;;;;;;;5115102;27;20039;-80
2022/12/09 03:29:35;;;;;;;46.25;18.90;;;;;;;;;;5114867;27;20027;-80
2022/12/09 03:32:01;;;;;;;47.78;18.08;;;;;;;;;;5115061;27;20175;-80
2022/12/09 03:34:30;;;;;;;44.35;17.83;;;;;;;;;;5105426;28;20038;-80
2022/12/09 03:36:57;;;;;;;44.90;18.33;;;;;;;;;;5122501;27;20011;-80
2022/12/09 03:39:25;;;;;;;43.85;19.05;;;;;;;;;;5132995;27;20069;-80
2022/12/09 03:41:53;;;;;;;48.50;17.83;;;;;;;;;;5110421;27;20012;-80
2022/12/09 03:44:23;;;;;;;44.17;18.75;;;;;;;;;;5105540;27;20480;-80
2022/12/09 03:46:49;;;;;;;42.80;17.92;;;;;;;;;;5133019;27;20234;-80
2022/12/09 03:49:15;;;;;;;46.67;18.58;;;;;;;;;;5096013;28;20055;-80
2022/12/09 03:51:48;;;;;;;44.22;18.90;;;;;;;;;;5111217;28;20771;-80
2022/12/09 03:54:13;;;;;;;;;;;;;;;;;;5094570;28;20548;-80
2022/12/09 03:56:41;;;;;;;41.65;17.60;;;;;;;;;;5111209;28;19962;-80
2022/12/09 03:59:11;;;;;;;44.25;18.60;;;;;;;;;;5112762;28;20019;-80
2022/12/09 04:01:37;;;;;;;41.13;17.55;;;;;;;;;;5132517;27;20019;-80
2022/12/09 04:04:03;;;;;;;48.05;19.42;;;;;;;;;;5133112;27;20156;-80
2022/12/09 04:06:29;;;;;;;47.03;19.52;;;;;;;;;;5133134;27;20162;-80
2022/12/09 04:08:55;;;;;;;44.00;19.50;;;;;;;;;;5114411;27;20168;-80
2022/12/09 04:11:22;;;;;;;47.97;20.08;;;;;;;;;;5114535;28;20031;-80
2022/12/09 04:13:48;;;;;;;46.95;18.63;;;;;;;;;;5132230;27;20015;-80
2022/12/09 04:16:14;;;;;;;45.33;19.05;;;;;;;;;;5097706;28;20480;-80
2022/12/09 04:18:40;;;;;;;49.20;20.70;;;;;;;;;;5114153;28;20038;-80
2022/12/09 04:21:09;;;;;;;44.40;18.77;;;;;;;;;;5114407;28;20023;-80
2022/12/09 04:23:36;;;;;;;51.75;20.20;;;;;;;;;;5132745;27;20051;-80
2022/12/09 04:26:02;;;;;;;45.90;19.55;;;;;;;;;;5132992;28;20023;-80
2022/12/09 04:28:28;;;;;;;45.92;19.38;;;;;;;;;;5132792;28;20023;-80
2022/12/09 04:30:54;;;;;;;43.72;18.58;;;;;;;;;;5132769;28;20046;-80
2022/12/09 04:33:20;;;;;;;42.00;18.75;;;;;;;;;;5114277;28;20449;-80
2022/12/09 04:35:46;;;;;;;45.38;20.10;;;;;;;;;;5093939;28;20370;-80
2022/12/09 04:38:12;;;;;;;45.45;19.13;;;;;;;;;;5111191;28;20415;-80
2022/12/09 04:40:38;;;;;;;48.17;19.63;;;;;;;;;;5093463;28;20430;-80
2022/12/09 04:43:04;;;;;;;51.85;19.83;;;;;;;;;;5113006;27;20027;-80
2022/12/09 04:45:30;;;;;;;45.30;19.05;;;;;;;;;;5114720;28;20038;-80
2022/12/09 04:47:58;;;;;;;50.70;19.35;;;;;;;;;;5106411;28;20758;-80
2022/12/09 04:50:24;;;;;;;50.60;20.15;;;;;;;;;;5112070;28;20055;-80
2022/12/09 04:52:50;;;;;;;49.88;20.00;;;;;;;;;;5093373;28;20070;-81
2022/12/09 04:55:16;;;;;;;48.10;19.92;;;;;;;;;;5093332;28;20477;-80
2022/12/09 04:57:42;;;;;;;45.95;20.23;;;;;;;;;;5093779;28;20030;-80
2022/12/09 05:00:09;;;;;;;52.55;19.35;;;;;;;;;;5110662;28;20023;-80
2022/12/09 05:02:35;;;;;;;47.80;20.40;;;;;;;;;;5093648;28;20370;-80
2022/12/09 05:05:01;;;;;;;46.78;19.80;;;;;;;;;;5111925;28;20031;-80
2022/12/09 05:07:27;;;;;;;54.25;20.83;;;;;;;;;;5093798;28;20028;-80
2022/12/09 05:09:54;;;;;;;55.72;21.85;;;;;;;;;;5093557;28;20495;-80
2022/12/09 05:12:20;;;;;;;49.70;21.15;;;;;;;;;;5094043;28;20059;-80
2022/12/09 05:14:46;;;;;;;64.30;20.88;;;;;;;;;;5093703;28;20027;-80
2022/12/09 05:17:12;;;;;;;45.60;19.83;;;;;;;;;;5093806;28;20429;-80
2022/12/09 05:19:38;;;;;;;52.95;20.67;;;;;;;;;;5093425;28;20043;-80
2022/12/09 05:22:04;;;;;;;52.40;21.63;;;;;;;;;;5076694;28;20350;-80
2022/12/09 05:24:30;;;;;;;53.92;21.88;;;;;;;;;;5076837;28;20056;-80
2022/12/09 05:26:56;;;;;;;61.25;21.92;;;;;;;;;;5079922;28;20532;-80
2022/12/09 05:29:23;;;;;;;49.70;19.80;;;;;;;;;;5097116;28;20394;-80
2022/12/09 05:31:50;;;;;;;48.10;20.77;;;;;;;;;;5096557;28;20431;-80
2022/12/09 05:34:16;;;;;;;52.35;20.65;;;;;;;;;;5084410;28;20362;-80
2022/12/09 05:36:42;;;;;;;50.92;21.25;;;;;;;;;;5104683;27;20015;-80
2022/12/09 05:39:08;;;;;;;64.28;21.42;;;;;;;;;;5134648;27;20051;-80
2022/12/09 05:41:34;;;;;;;57.67;21.33;;;;;;;;;;5098406;27;20027;-80
2022/12/09 05:44:00;;;;;;;46.80;19.23;;;;;;;;;;5125853;27;20046;-80
2022/12/09 05:46:26;;;;;;;53.80;21.67;;;;;;;;;;5096322;28;20024;-80
2022/12/09 05:48:52;;;;;;;55.17;21.73;;;;;;;;;;5111804;27;20046;-80
2022/12/09 05:51:26;;;;;;;52.20;19.45;;;;;;;;;;5134573;27;20027;-80
2022/12/09 05:53:54;;;;;;;61.13;21.00;;;;;;;;;;5133941;27;20506;-80
2022/12/09 05:56:21;;;;;;;54.88;21.52;;;;;;;;;;5134271;27;20032;-80
2022/12/09 05:58:48;;;;;;;64.80;22.30;;;;;;;;;;5134249;27;20029;-80
2022/12/09 06:01:14;;;;;;;56.30;20.30;;;;;;;;;;5098395;28;20035;-80
2022/12/09 06:03:40;;;;;;;50.05;18.17;;;;;;;;;;5100254;27;20545;-80
2022/12/09 06:06:08;;;;;;;52.58;21.85;;;;;;;;;;5116213;27;20485;-80
2022/12/09 06:08:34;;;;;;;51.42;19.55;;;;;;;;;;5134657;27;20026;-80
2022/12/09 06:11:00;;;;;;;50.03;20.52;;;;;;;;;;5115271;27;20689;-80
2022/12/09 06:13:26;;;;;;;53.78;22.17;;;;;;;;;;5115745;27;20023;-80
2022/12/09 06:15:52;;;;;;;53.05;21.25;;;;;;;;;;5115195;27;20030;-80
2022/12/09 06:18:18;;;;;;;56.03;20.77;;;;;;;;;;5134094;27;20027;-80
2022/12/09 06:20:44;;;;;;;48.42;20.73;;;;;;;;;;5115329;27;20027;-80
2022/12/09 06:23:10;;;;;;;59.65;22.05;;;;;;;;;;5133554;27;20016;-80
2022/12/09 06:25:37;;;;;;;51.33;21.08;;;;;;;;;;5115397;27;20019;-80
2022/12/09 06:28:03;;;;;;;50.42;21.23;;;;;;;;;;5133599;27;20027;-80
2022/12/09 06:30:30;;;;;;;52.85;20.75;;;;;;;;;;5115055;27;20023;-80
2022/12/09 06:32:56;;;;;;;57.42;21.45;;;;;;;;;;5115195;27;20489;-80
2022/12/09 06:35:22;;;;;;;56.85;21.48;;;;;;;;;;5133114;27;20103;-80
2022/12/09 06:37:51;;;;;;;62.30;22.75;;;;;;;;;;5096626;28;20019;-80
2022/12/09 06:40:17;;;;;;;57.47;22.30;;;;;;;;;;5093680;28;20035;-80
2022/12/09 06:42:43;;;;;;;61.15;23.85;;;;;;;;;;5111782;27;20019;-80
2022/12/09 06:45:09;;;;;;;60.13;22.33;;;;;;;;;;5094115;28;20116;-80
2022/12/09 06:47:35;;;;;;;56.55;21.95;;;;;;;;;;5113011;27;20028;-80
2022/12/09 06:50:01;;;;;;;60.65;24.13;;;;;;;;;;5128780;27;20032;-80
2022/12/09 06:52:27;;;;;;;53.70;21.25;;;;;;;;;;5128310;27;20030;-80
2022/12/09 06:54:53;;;;;;;58.50;22.52;;;;;;;;;;5095061;28;20043;-80
2022/12/09 06:57:19;;;;;;;61.70;23.83;;;;;;;;;;5112233;28;20051;-80
2022/12/09 06:59:46;;;;;;;56.72;22.48;;;;;;;;;;5110265;28;20024;-80
2022/12/09 07:02:12;;;;;;;59.00;23.38;;;;;;;;;;5095108;28;20061;-80
2022/12/09 07:04:38;;;;;;;55.35;23.02;;;;;;;;;;5113589;28;20020;-80
2022/12/09 07:07:04;;;;;;;68.75;26.45;;;;;;;;;;5095377;28;20028;-80
2022/12/09 07:09:30;;;;;;;62.70;25.75;;;;;;;;;;5095482;28;20072;-80
2022/12/09 07:11:56;;;;;;;63.88;26.35;;;;;;;;;;5095329;28;20031;-80
2022/12/09 07:14:22;;;;;;;62.05;25.02;;;;;;;;;;5115545;27;20027;-80
2022/12/09 07:16:48;;;;;;;67.35;24.75;;;;;;;;;;5115518;27;20027;-80
2022/12/09 07:19:16;;;;;;;59.17;24.52;;;;;;;;;;5115401;27;20031;-80
2022/12/09 07:21:42;;;;;;;55.80;24.65;;;;;;;;;;5110005;27;20030;-81
2022/12/09 07:24:09;;;;;;;65.00;25.85;;;;;;;;;;5115207;27;20099;-80
2022/12/09 07:26:35;;;;;;;64.03;25.80;;;;;;;;;;5115368;27;20440;-80
2022/12/09 07:29:02;;;;;;;61.88;24.92;;;;;;;;;;5122527;27;20027;-80
2022/12/09 07:31:28;;;;;;;62.70;25.17;;;;;;;;;;5115059;27;20385;-80
2022/12/09 07:33:55;;;;;;;70.60;26.58;;;;;;;;;;5109769;28;20053;-80
2022/12/09 07:36:23;;;;;;;68.22;26.70;;;;;;;;;;5113044;28;20499;-80
2022/12/09 07:38:54;;;;;;;70.70;25.90;;;;;;;;;;5131516;27;20031;-80
2022/12/09 07:41:20;;;;;;;81.03;28.13;;;;;;;;;;5130788;27;20051;-80
2022/12/09 07:43:46;;;;;;;79.20;28.42;;;;;;;;;;5114989;27;20027;-80
2022/12/09 07:46:13;;;;;;;67.43;25.05;;;;;;;;;;5114703;27;20031;-80
2022/12/09 07:48:39;;;;;;;78.40;27.27;;;;;;;;;;5132480;27;20035;-80
2022/12/09 07:51:05;;;;;;;78.30;27.90;;;;;;;;;;5132830;27;20023;-80
2022/12/09 07:53:33;;;;;;;71.80;24.73;;;;;;;;;;5114403;27;20019;-80
2022/12/09 07:56:04;;;;;;;77.15;27.15;;;;;;;;;;5114638;28;20431;-80
2022/12/09 07:58:30;;;;;;;74.72;26.55;;;;;;;;;;5114667;27;20201;-80
2022/12/09 08:00:56;;;;;;;80.68;27.35;;;;;;;;;;5114911;28;20080;-80
2022/12/09 08:03:22;;;;;;;70.20;27.70;;;;;;;;;;5097437;28;20400;-80
2022/12/09 08:05:52;;;;;;;73.18;27.02;;;;;;;;;;5114486;27;20024;-80
2022/12/09 08:08:18;;;;;;;74.38;26.92;;;;;;;;;;5114600;27;20038;-80
2022/12/09 08:10:45;;;;;;;79.88;26.63;;;;;;;;;;5077414;28;20434;-80
2022/12/09 08:13:11;;;;;;;71.80;24.80;;;;;;;;;;5094067;28;20051;-80
2022/12/09 08:15:37;;;;;;;67.43;25.17;;;;;;;;;;5112466;28;20062;-80
2022/12/09 08:18:03;;;;;;;73.65;27.05;;;;;;;;;;5094132;28;20510;-80
2022/12/09 08:20:30;;;;;;;78.30;26.63;;;;;;;;;;5094095;28;20118;-80
2022/12/09 08:22:56;;;;;;;79.72;26.60;;;;;;;;;;5094393;28;20027;-80
2022/12/09 08:25:22;;;;;;;79.53;28.08;;;;;;;;;;5115732;28;20023;-80
2022/12/09 08:27:48;;;;;;;78.88;25.42;;;;;;;;;;5114554;28;20047;-80
2022/12/09 08:30:15;;;;;;;78.45;26.40;;;;;;;;;;5132804;28;20019;-80
2022/12/09 08:32:41;;;;;;;67.40;24.88;;;;;;;;;;5132520;28;20023;-80
2022/12/09 08:35:13;;;;;;;70.50;24.92;;;;;;;;;;5114340;28;20020;-80
2022/12/09 08:37:39;;;;;;;75.65;25.85;;;;;;;;;;5132682;27;20110;-80
2022/12/09 08:40:06;;;;;;;72.10;25.50;;;;;;;;;;5097118;28;20023;-80
2022/12/09 08:42:32;;;;;;;83.57;26.77;;;;;;;;;;5113150;28;20084;-80
2022/12/09 08:44:58;;;;;;;80.22;27.48;;;;;;;;;;5132755;28;20038;-81
2022/12/09 08:47:26;;;;;;;70.82;24.80;;;;;;;;;;5109433;28;20027;-81
2022/12/09 08:49:52;;;;;;;75.03;25.23;;;;;;;;;;5110588;28;20114;-81
2022/12/09 08:52:18;;;;;;;79.18;26.50;;;;;;;;;;5093820;28;20020;-81
2022/12/09 08:54:44;;;;;;;71.07;24.75;;;;;;;;;;5112076;28;20377;-81
2022/12/09 08:57:10;;;;;;;90.75;28.63;;;;;;;;;;5093680;28;20434;-81
2022/12/09 08:59:36;;;;;;;86.15;28.23;;;;;;;;;;5118483;27;20015;-81
2022/12/09 09:02:03;;;;;;;79.00;29.05;;;;;;;;;;5116900;27;20023;-81
2022/12/09 09:04:30;;;;;;;86.43;32.15;;;;;;;;;;5118455;27;20022;-81
2022/12/09 09:06:56;;;;;;;82.90;31.55;;;;;;;;;;5136741;27;20019;-81
2022/12/09 09:09:22;;;;;;;94.07;30.25;;;;;;;;;;5136558;27;20124;-81
2022/12/09 09:11:48;;;;;;;85.25;27.92;;;;;;;;;;5118145;27;20031;-81
2022/12/09 09:14:14;;;;;;;80.78;27.73;;;;;;;;;;5101272;27;20469;-81
2022/12/09 09:16:41;;;;;;;89.20;27.85;;;;;;;;;;5118093;27;20035;-81
2022/12/09 09:19:08;;;;;;;146.65;35.10;;;;;;;;;;5118045;27;20027;-81
2022/12/09 09:21:34;;;;;;;133.23;34.72;;;;;;;;;;5136619;27;20492;-81
2022/12/09 09:24:00;;;;;;;108.72;34.90;;;;;;;;;;5136612;27;20023;-81
2022/12/09 09:26:26;;;;;;;103.18;33.28;;;;;;;;;;5117803;27;20019;-82
2022/12/09 09:28:54;;;;;;;101.43;35.00;;;;;;;;;;5117930;27;20035;-82
2022/12/09 09:31:20;;;;;;;93.22;34.55;;;;;;;;;;5117736;27;20020;-81
2022/12/09 09:33:46;;;;;;;88.03;29.85;;;;;;;;;;5114356;28;20015;-82
2022/12/09 09:36:14;;;;;;;102.53;29.63;;;;;;;;;;5102465;27;20019;-82
2022/12/09 09:38:40;;;;;;;94.30;32.13;;;;;;;;;;5117558;27;20401;-82
2022/12/09 09:41:13;;;;;;;93.22;32.22;;;;;;;;;;5115215;27;20087;-82
2022/12/09 09:43:40;;;;;;;98.57;33.88;;;;;;;;;;5097285;28;20070;-82
2022/12/09 09:46:06;;;;;;;88.75;32.20;;;;;;;;;;5080357;28;20373;-82
2022/12/09 09:48:35;;;;;;;101.20;33.63;;;;;;;;;;5115487;28;20529;-81
2022/12/09 09:51:13;;;;;;;104.03;34.30;;;;;;;;;;5096951;28;20035;-84
2022/12/09 09:53:40;;;;;;;100.47;36.15;;;;;;;;;;5097166;28;20019;-81
2022/12/09 09:56:15;;;;;;;112.13;37.30;;;;;;;;;;5076833;28;20509;-82
2022/12/09 09:58:43;;;;;;;99.55;33.47;;;;;;;;;;5093603;28;20058;-82
2022/12/09 10:01:10;;;;;;;96.03;32.85;;;;;;;;;;5111487;28;20020;-79
2022/12/09 10:03:40;;;;;;;92.28;35.78;;;;;;;;;;5113044;28;20032;-79
2022/12/09 10:06:10;;;;;;;107.95;36.25;;;;;;;;;;5113604;28;20023;-79
2022/12/09 10:08:41;;;;;;;102.85;35.75;;;;;;;;;;5115042;28;20071;-78
2022/12/09 10:11:13;;;;;;;94.78;33.58;;;;;;;;;;5112743;28;20032;-78
2022/12/09 10:13:53;;;;;;;95.22;32.53;;;;;;;;;;5114706;28;20024;-79
2022/12/09 10:16:43;;;;;;;88.50;30.63;;;;;;;;;;5114913;28;20068;-79
2022/12/09 10:19:35;;;;;;;90.80;31.30;;;;;;;;;;5108746;28;20035;-79
2022/12/09 10:22:01;;;;;;;;;;;;;;;;;;5110620;28;20400;-78
2022/12/09 10:24:30;;;;;;;81.60;28.55;;;;;;;;;;5114770;28;19904;-79
2022/12/09 10:26:59;;;;;;;76.95;27.55;;;;;;;;;;5114772;28;20102;-79
2022/12/09 10:29:45;;;;;;;67.20;26.05;;;;;;;;;;5114399;28;20032;-79
2022/12/09 10:32:17;;;;;;;71.70;26.63;;;;;;;;;;5113279;28;20111;-79
2022/12/09 10:34:43;;;;;;;70.23;26.90;;;;;;;;;;5113387;28;20027;-79
2022/12/09 10:37:22;;;;;;;66.60;25.55;;;;;;;;;;5099845;28;20016;-79
2022/12/09 10:39:49;;;;;;;68.50;25.60;;;;;;;;;;5093283;28;20020;-79
2022/12/09 10:45:07;;;;;;;59.45;24.00;;;;;;;;;;5093484;28;20813;-79
2022/12/09 10:47:33;;;;;;;59.85;23.52;;;;;;;;;;5098346;28;20016;-79
2022/12/09 10:49:59;;;;;;;55.22;22.40;;;;;;;;;;5113983;28;20028;-79
2022/12/09 10:52:28;;;;;;;55.63;22.02;;;;;;;;;;5114329;28;20023;-79
2022/12/09 10:54:54;;;;;;;50.83;21.00;;;;;;;;;;5121304;27;20038;-79
2022/12/09 10:57:23;;;;;;;53.15;21.45;;;;;;;;;;5116249;27;20076;-79
2022/12/09 11:00:05;;;;;;;58.45;22.08;;;;;;;;;;5128052;27;20040;-79
2022/12/09 11:02:32;;;;;;;55.72;21.98;;;;;;;;;;5110479;27;20476;-79
2022/12/09 11:05:21;;;;;;;61.83;23.60;;;;;;;;;;5134422;27;20019;-79
2022/12/09 11:07:48;;;;;;;60.85;24.05;;;;;;;;;;5116138;27;20381;-79
2022/12/09 11:10:19;;;;;;;54.47;22.70;;;;;;;;;;5134202;27;20171;-80
2022/12/09 11:12:45;;;;;;;55.20;23.52;;;;;;;;;;5134091;27;20061;-80
2022/12/09 11:15:11;;;;;;;47.17;21.42;;;;;;;;;;5118589;27;20031;-83
2022/12/09 11:17:39;;;;;;;43.35;19.30;;;;;;;;;;5095454;28;20366;-81
2022/12/09 11:20:05;;;;;;;44.55;19.23;;;;;;;;;;5113465;28;20023;-82
2022/12/09 11:22:38;;;;;;;43.92;20.10;;;;;;;;;;5095294;28;20080;-82
2022/12/09 11:25:11;;;;;;;46.83;19.75;;;;;;;;;;5115368;27;20027;-81
2022/12/09 11:27:38;;;;;;;41.03;19.20;;;;;;;;;;5115571;27;20079;-81
2022/12/09 11:30:08;;;;;;;44.97;18.67;;;;;;;;;;5115808;27;20019;-81
2022/12/09 11:32:50;;;;;;;48.95;19.63;;;;;;;;;;5115243;27;20026;-81
2022/12/09 11:35:20;;;;;;;37.63;18.42;;;;;;;;;;5134045;27;20031;-81
2022/12/09 11:37:47;;;;;;;39.65;18.40;;;;;;;;;;5115543;27;20411;-81
2022/12/09 11:40:17;;;;;;;41.50;19.52;;;;;;;;;;5115773;27;20040;-81
2022/12/09 11:42:48;;;;;;;38.80;18.17;;;;;;;;;;5128768;27;20109;-81
2022/12/09 11:45:19;;;;;;;35.38;17.67;;;;;;;;;;5115545;27;20058;-81
2022/12/09 11:47:46;;;;;;;39.38;18.55;;;;;;;;;;5133706;27;20031;-81
2022/12/09 11:50:30;;;;;;;38.90;18.13;;;;;;;;;;5115745;27;20059;-82
2022/12/09 11:53:22;;;;;;;39.05;18.92;;;;;;;;;;5133744;27;20015;-80
2022/12/09 11:56:05;;;;;;;38.92;18.38;;;;;;;;;;5133711;27;20046;-81
2022/12/09 11:58:45;;;;;;;42.33;18.60;;;;;;;;;;5133413;27;20027;-83
2022/12/09 12:01:17;;;;;;;43.83;18.50;;;;;;;;;;5119090;27;20363;-83
2022/12/09 12:03:48;;;;;;;41.90;19.17;;;;;;;;;;5114982;27;20023;-85
2022/12/09 12:06:18;;;;;;;40.35;18.42;;;;;;;;;;5115011;28;20027;-85
2022/12/09 12:08:48;;;;;;;40.30;18.45;;;;;;;;;;5133570;27;20110;-85
2022/12/09 12:11:18;;;;;;;38.28;16.85;;;;;;;;;;5133271;27;20050;-84
2022/12/09 12:13:45;;;;;;;38.75;18.20;;;;;;;;;;5133414;27;20472;-84
2022/12/09 12:16:20;;;;;;;40.67;17.27;;;;;;;;;;5115189;28;20506;-81
2022/12/09 12:18:55;;;;;;;36.33;17.00;;;;;;;;;;5114822;28;20019;-83
2022/12/09 12:21:40;;;;;;;36.75;17.00;;;;;;;;;;5114854;28;20031;-83
2022/12/09 12:24:13;;;;;;;37.90;17.67;;;;;;;;;;5115053;28;20468;-84
2022/12/09 12:26:39;;;;;;;35.10;17.48;;;;;;;;;;5114566;27;20026;-84
2022/12/09 12:29:19;;;;;;;40.63;19.17;;;;;;;;;;5133131;28;20338;-81
2022/12/09 12:31:57;;;;;;;35.90;17.00;;;;;;;;;;5114537;28;20131;-80
2022/12/09 12:34:23;;;;;;;36.25;16.55;;;;;;;;;;5134045;27;20406;-80
2022/12/09 12:36:52;;;;;;;37.28;18.02;;;;;;;;;;5115971;27;20421;-80
2022/12/09 12:39:31;;;;;;;38.53;16.15;;;;;;;;;;5136948;27;20019;-79
2022/12/09 12:42:00;;;;;;;33.78;16.73;;;;;;;;;;5107980;28;20055;-79
2022/12/09 12:47:34;;;;;;;38.13;15.75;;;;;;;;;;5136142;27;20058;-80
2022/12/09 12:50:05;;;;;;;35.92;16.05;;;;;;;;;;5097829;28;20020;-80
2022/12/09 12:52:31;;;;;;;30.48;15.13;;;;;;;;;;5116254;27;20019;-80
2022/12/09 12:55:03;;;;;;;33.95;16.33;;;;;;;;;;5117417;27;20378;-79
2022/12/09 12:57:29;;;;;;;;;;;;;;;;;;5136884;27;20049;-79
2022/12/09 13:00:05;;;;;;;39.47;16.50;;;;;;;;;;5136543;27;19904;-79
2022/12/09 13:02:32;;;;;;;37.83;16.00;;;;;;;;;;5136688;27;20019;-79
2022/12/09 13:05:02;;;;;;;37.78;16.67;;;;;;;;;;5136660;27;20420;-79
2022/12/09 13:07:43;;;;;;;39.78;17.33;;;;;;;;;;5136663;27;20042;-79
2022/12/09 13:10:09;;;;;;;35.50;15.73;;;;;;;;;;5136816;27;20023;-79
2022/12/09 13:12:52;;;;;;;37.80;17.15;;;;;;;;;;5136692;27;20023;-79
2022/12/09 13:15:19;;;;;;;34.85;16.50;;;;;;;;;;5136867;27;20019;-79
2022/12/09 13:17:46;;;;;;;38.30;17.13;;;;;;;;;;5135467;27;20019;-79
2022/12/09 13:20:14;;;;;;;34.58;17.25;;;;;;;;;;5135241;27;20039;-79
2022/12/09 13:22:47;;;;;;;39.92;16.70;;;;;;;;;;5136434;27;20469;-79
2022/12/09 13:25:13;;;;;;;;;;;;;;;;;;5131215;27;20019;-79
2022/12/09 13:27:42;;;;;;;33.72;16.33;;;;;;;;;;5117989;27;20246;-79
2022/12/09 13:30:09;;;;;;;34.70;16.08;;;;;;;;;;5136377;27;20023;-79
2022/12/09 13:32:48;;;;;;;37.38;17.33;;;;;;;;;;5136111;27;20071;-79
2022/12/09 13:35:21;;;;;;;36.47;17.42;;;;;;;;;;5117389;27;20054;-79
2022/12/09 13:37:48;;;;;;;33.80;16.63;;;;;;;;;;5135897;27;20015;-79
2022/12/09 13:40:20;;;;;;;35.85;16.92;;;;;;;;;;5136265;27;20019;-79
2022/12/09 13:43:03;;;;;;;37.20;17.13;;;;;;;;;;5103001;27;20015;-80
2022/12/09 13:45:46;;;;;;;37.45;17.85;;;;;;;;;;5114368;28;20070;-79
2022/12/09 13:48:12;;;;;;;33.47;16.50;;;;;;;;;;5115973;28;20019;-79
2022/12/09 13:51:04;;;;;;;38.10;18.27;;;;;;;;;;5115452;28;20487;-80
2022/12/09 13:53:32;;;;;;;;;;;;;;;;;;5077144;28;20028;-79
2022/12/09 13:56:00;;;;;;;38.45;16.67;;;;;;;;;;5113841;28;20265;-79
2022/12/09 13:58:39;;;;;;;40.53;17.02;;;;;;;;;;5115604;28;20020;-79
2022/12/09 14:01:08;;;;;;;40.60;17.17;;;;;;;;;;5117161;27;20027;-80
2022/12/09 14:03:36;;;;;;;36.17;17.15;;;;;;;;;;5135553;27;20476;-79
2022/12/09 14:06:05;;;;;;;33.40;15.52;;;;;;;;;;5135481;27;20069;-79
2022/12/09 14:08:40;;;;;;;35.30;16.38;;;;;;;;;;5116112;27;20421;-79
2022/12/09 14:11:32;;;;;;;33.47;14.90;;;;;;;;;;5114807;27;20042;-82
2022/12/09 14:14:17;;;;;;;35.17;16.35;;;;;;;;;;5105335;28;20028;-80
2022/12/09 14:16:43;;;;;;;39.42;17.25;;;;;;;;;;5112744;27;20062;-79
2022/12/09 14:19:24;;;;;;;32.17;16.13;;;;;;;;;;5096453;28;20028;-83
2022/12/09 14:22:15;;;;;;;36.92;17.13;;;;;;;;;;5118357;27;20030;-79
2022/12/09 14:24:41;;;;;;;43.97;20.10;;;;;;;;;;5099717;27;20118;-78
2022/12/09 14:27:15;;;;;;;40.90;19.10;;;;;;;;;;5135332;27;20022;-79
2022/12/09 14:29:47;;;;;;;44.90;20.45;;;;;;;;;;5135031;27;20067;-79
2022/12/09 14:32:32;;;;;;;43.63;19.13;;;;;;;;;;5127294;27;20170;-78
2022/12/09 14:35:10;;;;;;;49.03;21.88;;;;;;;;;;5135433;27;20019;-82